Time;durP1;ratioP1;P1;durP2;ratioP2;P2;SDS_P1;SDS_P2;PMS_P1;PMS_P2;Temp;Humidity;BMP_temperature;BMP_pressure;BME280_temperature;BME280_humidity;BME280_pressure;Samples;Min_cycle;Max_cycle;Signal;HPM_P1;HPM_P2
2023/01/09 00:00:40;;;;;;;3.00;0.57;;;8.00;99.90;;;;;;5070400;28;20031;-44
2023/01/09 00:03:06;;;;;;;0.73;0.70;;;8.00;99.90;;;;;;5063424;28;20035;-44
2023/01/09 00:05:32;;;;;;;2.28;0.43;;;8.00;99.90;;;;;;5066890;28;20396;-42
2023/01/09 00:07:57;;;;;;;0.57;0.50;;;7.90;99.90;;;;;;5069313;28;20074;-41
2023/01/09 00:10:23;;;;;;;0.50;0.32;;;7.90;99.90;;;;;;5069067;28;20546;-46
2023/01/09 00:12:49;;;;;;;1.15;0.68;;;7.90;99.90;;;;;;5070555;28;20051;-42
2023/01/09 00:15:15;;;;;;;2.00;0.75;;;7.90;99.90;;;;;;5072740;28;20468;-42
2023/01/09 00:17:41;;;;;;;3.25;0.88;;;7.80;99.90;;;;;;5071845;28;20028;-37
2023/01/09 00:20:11;;;;;;;0.77;0.52;;;7.70;99.90;;;;;;5067470;28;20112;-35
2023/01/09 00:22:37;;;;;;;4.15;0.90;;;7.80;99.90;;;;;;5069997;28;20020;-43
2023/01/09 00:25:03;;;;;;;1.33;0.73;;;7.70;99.90;;;;;;5072783;28;20035;-41
2023/01/09 00:27:31;;;;;;;6.05;1.20;;;7.70;99.90;;;;;;5075758;28;20028;-38
2023/01/09 00:29:57;;;;;;;3.42;0.82;;;7.70;99.90;;;;;;5078864;28;20012;-38
2023/01/09 00:32:22;;;;;;;2.33;0.70;;;7.70;99.90;;;;;;5078348;28;20036;-37
2023/01/09 00:34:48;;;;;;;1.52;0.60;;;7.70;99.90;;;;;;5077462;28;20081;-39
2023/01/09 00:37:14;;;;;;;3.65;0.90;;;7.60;99.90;;;;;;5059914;28;20500;-41
2023/01/09 00:39:43;;;;;;;0.40;0.40;;;7.60;99.90;;;;;;5079436;28;20029;-37
2023/01/09 00:42:16;;;;;;;2.22;1.02;;;7.60;99.90;;;;;;5079325;28;20029;-44
2023/01/09 00:45:03;;;;;;;2.90;0.80;;;7.50;99.90;;;;;;5079105;28;20039;-45
2023/01/09 00:47:37;;;;;;;1.53;0.73;;;7.50;99.90;;;;;;5078873;28;20170;-43
2023/01/09 00:50:08;;;;;;;4.25;0.85;;;7.40;99.90;;;;;;5078928;28;20438;-43
2023/01/09 00:52:36;;;;;;;3.65;0.73;;;7.40;99.90;;;;;;5072255;28;20029;-41
2023/01/09 00:55:03;;;;;;;2.78;0.73;;;7.30;99.90;;;;;;5066061;28;20523;-42
2023/01/09 00:57:29;;;;;;;3.03;1.15;;;7.30;99.90;;;;;;5079076;28;20036;-40
2023/01/09 00:59:56;;;;;;;1.15;0.77;;;7.30;99.90;;;;;;5077099;28;20113;-39
2023/01/09 01:02:22;;;;;;;3.95;0.70;;;7.30;99.90;;;;;;5079330;28;20036;-35
2023/01/09 01:07:38;;;;;;;3.35;0.55;;;7.20;99.90;;;;;;5079035;28;20039;-37
2023/01/09 01:10:15;;;;;;;2.05;0.73;;;7.20;99.90;;;;;;5079319;28;20488;-38
2023/01/09 01:12:41;;;;;;;3.27;0.80;;;7.20;99.90;;;;;;5078173;28;20424;-44
2023/01/09 01:15:07;;;;;;;0.63;0.63;;;7.20;99.90;;;;;;5078373;28;20491;-45
2023/01/09 01:17:35;;;;;;;3.38;0.82;;;7.10;99.90;;;;;;5078514;28;20079;-44
2023/01/09 01:20:00;;;;;;;1.95;0.80;;;7.10;99.90;;;;;;5078948;28;20073;-42
2023/01/09 01:22:26;;;;;;;9.43;1.08;;;7.00;99.90;;;;;;5075518;28;20111;-42
2023/01/09 01:24:51;;;;;;;2.15;1.13;;;7.00;99.90;;;;;;5059624;28;20029;-42
2023/01/09 01:27:17;;;;;;;3.20;1.00;;;7.00;99.90;;;;;;5076920;28;20480;-42
2023/01/09 01:29:43;;;;;;;9.77;1.42;;;7.00;99.90;;;;;;5077928;28;20033;-51
2023/01/09 01:32:08;;;;;;;1.00;0.70;;;7.00;99.90;;;;;;5077847;28;20055;-41
2023/01/09 01:34:34;;;;;;;8.00;1.13;;;7.00;99.90;;;;;;5077595;28;20036;-42
2023/01/09 01:37:00;;;;;;;1.08;0.40;;;7.00;99.90;;;;;;5077905;28;20496;-43
2023/01/09 01:39:25;;;;;;;1.17;1.02;;;7.00;99.90;;;;;;5073638;28;20093;-47
2023/01/09 01:41:51;;;;;;;9.35;0.77;;;6.90;99.90;;;;;;5073600;28;20021;-41
2023/01/09 01:44:55;;;;;;;0.88;0.55;;;6.90;99.90;;;;;;5070457;28;20538;-39
2023/01/09 01:47:26;;;;;;;6.93;1.48;;;6.90;99.90;;;;;;5074525;28;20032;-38
2023/01/09 01:49:52;;;;;;;0.50;0.47;;;6.90;99.90;;;;;;5072783;28;20056;-38
2023/01/09 01:52:19;;;;;;;1.65;0.70;;;6.80;99.90;;;;;;5073430;28;20426;-39
2023/01/09 01:54:45;;;;;;;3.75;1.40;;;6.80;99.90;;;;;;5073832;28;20025;-40
2023/01/09 01:57:11;;;;;;;2.75;0.82;;;6.80;99.90;;;;;;5074940;28;20536;-37
2023/01/09 01:59:44;;;;;;;1.50;1.13;;;6.80;99.90;;;;;;5073284;28;20025;-34
2023/01/09 02:02:10;;;;;;;7.85;1.10;;;6.80;99.90;;;;;;5074903;28;20422;-37
2023/01/09 02:04:41;;;;;;;5.13;1.08;;;6.90;99.90;;;;;;5067074;28;20029;-35
2023/01/09 02:07:08;;;;;;;3.20;1.33;;;7.00;99.90;;;;;;5066246;28;20112;-42
2023/01/09 02:09:36;;;;;;;3.53;1.20;;;7.00;99.90;;;;;;5074050;28;20496;-43
2023/01/09 02:12:18;;;;;;;2.75;1.35;;;7.10;99.90;;;;;;5074858;28;20423;-45
2023/01/09 02:14:45;;;;;;;2.97;1.20;;;7.10;99.90;;;;;;5073336;28;20048;-43
2023/01/09 02:17:32;;;;;;;1.42;1.15;;;7.10;99.90;;;;;;5074980;28;20060;-45
2023/01/09 02:20:33;;;;;;;1.98;1.65;;;7.20;99.90;;;;;;5073852;28;20396;-46
2023/01/09 02:23:15;;;;;;;5.13;1.50;;;7.20;99.90;;;;;;5075147;28;20032;-42
2023/01/09 02:26:26;;;;;;;4.60;1.75;;;7.20;99.90;;;;;;5074463;28;20036;-42
2023/01/09 02:29:01;;;;;;;6.60;2.13;;;7.20;99.90;;;;;;5072633;28;20040;-42
2023/01/09 02:31:53;;;;;;;10.40;1.98;;;7.10;99.90;;;;;;5073600;28;20626;-42
2023/01/09 02:34:39;;;;;;;3.97;2.05;;;7.00;99.90;;;;;;5074661;28;20085;-42
2023/01/09 02:37:10;;;;;;;3.78;2.35;;;7.00;99.90;;;;;;5074152;28;20076;-42
2023/01/09 02:39:42;;;;;;;8.00;2.17;;;6.90;99.90;;;;;;5074507;28;20077;-43
2023/01/09 02:42:22;;;;;;;3.28;2.40;;;6.90;99.90;;;;;;5074297;28;20077;-45
2023/01/09 02:44:49;;;;;;;4.82;2.15;;;6.80;99.90;;;;;;5071674;28;20410;-44
2023/01/09 02:47:14;;;;;;;7.25;2.95;;;6.80;99.90;;;;;;5074270;28;20062;-42
2023/01/09 02:49:54;;;;;;;4.68;2.97;;;6.80;99.90;;;;;;5074020;28;20059;-44
2023/01/09 02:52:35;;;;;;;4.78;2.83;;;6.70;99.90;;;;;;5069290;28;20500;-40
2023/01/09 02:55:09;;;;;;;4.82;2.95;;;6.70;99.90;;;;;;5052944;28;20040;-41
2023/01/09 02:57:35;;;;;;;3.65;2.45;;;6.60;99.90;;;;;;5054484;28;20472;-42
2023/01/09 03:00:33;;;;;;;8.55;2.58;;;6.60;99.90;;;;;;5066246;28;20069;-38
2023/01/09 03:03:06;;;;;;;8.35;2.65;;;6.50;99.90;;;;;;5071658;28;20391;-36
2023/01/09 03:05:46;;;;;;;10.20;2.88;;;6.50;99.90;;;;;;5073814;28;20056;-36
2023/01/09 03:08:23;;;;;;;4.53;2.92;;;6.50;99.90;;;;;;5072858;28;20074;-35
2023/01/09 03:11:10;;;;;;;2.30;1.88;;;6.50;99.90;;;;;;5063301;28;20451;-50
2023/01/09 03:13:50;;;;;;;2.38;2.00;;;6.50;99.90;;;;;;5071219;28;20071;-48
2023/01/09 03:16:40;;;;;;;6.63;2.20;;;6.50;99.90;;;;;;5065741;28;20472;-33
2023/01/09 03:19:14;;;;;;;4.40;2.17;;;6.50;99.90;;;;;;5052817;28;20048;-41
2023/01/09 03:21:42;;;;;;;7.22;2.72;;;6.50;99.90;;;;;;5072664;28;20534;-40
2023/01/09 03:24:07;;;;;;;7.10;2.45;;;6.40;99.90;;;;;;5073527;28;20034;-37
2023/01/09 03:26:34;;;;;;;7.47;2.13;;;6.40;99.90;;;;;;5073344;28;20214;-37
2023/01/09 03:28:59;;;;;;;10.48;2.70;;;6.40;99.90;;;;;;5071671;28;20551;-37
2023/01/09 03:31:25;;;;;;;6.70;3.38;;;6.40;99.90;;;;;;5072185;28;20124;-38
2023/01/09 03:33:51;;;;;;;5.03;2.65;;;6.40;99.90;;;;;;5071089;28;20107;-39
2023/01/09 03:36:18;;;;;;;2.60;1.63;;;6.30;99.90;;;;;;5073331;28;20029;-41
2023/01/09 03:38:43;;;;;;;2.83;1.88;;;6.30;99.90;;;;;;5073156;28;20489;-38
2023/01/09 03:41:09;;;;;;;7.05;2.17;;;6.30;99.90;;;;;;5072704;28;20031;-39
2023/01/09 03:43:34;;;;;;;4.55;2.05;;;6.30;99.90;;;;;;5072216;28;20036;-38
2023/01/09 03:46:01;;;;;;;4.43;1.58;;;6.30;99.90;;;;;;5072467;28;20031;-36
2023/01/09 03:48:27;;;;;;;8.05;3.25;;;6.20;99.90;;;;;;5073115;28;20024;-37
2023/01/09 03:50:54;;;;;;;3.75;2.03;;;6.20;99.90;;;;;;5071298;28;20554;-38
2023/01/09 03:53:21;;;;;;;1.48;1.38;;;6.20;99.90;;;;;;5073358;28;20485;-37
2023/01/09 03:55:50;;;;;;;4.75;1.95;;;6.10;99.90;;;;;;5073386;28;20119;-37
2023/01/09 03:58:16;;;;;;;3.35;2.05;;;6.10;99.90;;;;;;5071636;28;20077;-38
2023/01/09 04:00:44;;;;;;;1.52;1.42;;;6.10;99.90;;;;;;5072124;28;20032;-36
2023/01/09 04:03:11;;;;;;;3.58;1.58;;;6.10;99.90;;;;;;5071829;28;20031;-36
2023/01/09 04:05:37;;;;;;;3.55;1.80;;;6.10;99.90;;;;;;5071984;28;20534;-37
2023/01/09 04:08:03;;;;;;;3.97;1.95;;;6.00;99.90;;;;;;5069112;28;20017;-37
2023/01/09 04:10:29;;;;;;;8.23;1.60;;;6.00;99.90;;;;;;5073119;28;20103;-36
2023/01/09 04:12:54;;;;;;;3.63;1.67;;;6.00;99.90;;;;;;5069518;28;20461;-37
2023/01/09 04:15:20;;;;;;;2.55;2.17;;;6.00;99.90;;;;;;5071467;28;20532;-36
2023/01/09 04:17:46;;;;;;;3.15;1.88;;;6.00;99.90;;;;;;5072248;28;20380;-40
2023/01/09 04:20:11;;;;;;;9.40;1.95;;;6.00;99.90;;;;;;5072777;28;20322;-38
2023/01/09 04:22:37;;;;;;;3.08;1.63;;;6.10;99.90;;;;;;5072379;28;20017;-39
2023/01/09 04:25:04;;;;;;;7.97;3.15;;;6.00;99.90;;;;;;5072142;28;20081;-37
2023/01/09 04:27:29;;;;;;;4.75;1.55;;;6.00;99.90;;;;;;5071955;28;20025;-41
2023/01/09 04:29:55;;;;;;;4.78;1.35;;;6.00;99.90;;;;;;5071617;28;20027;-36
2023/01/09 04:32:21;;;;;;;7.53;1.40;;;6.00;99.90;;;;;;5072483;28;20136;-34
2023/01/09 04:34:46;;;;;;;6.25;1.98;;;6.10;99.90;;;;;;5072659;28;20408;-39
2023/01/09 04:37:12;;;;;;;4.53;1.35;;;6.10;99.90;;;;;;5072636;28;20023;-40
2023/01/09 04:39:39;;;;;;;7.82;1.92;;;6.10;99.90;;;;;;5072890;28;20389;-37
2023/01/09 04:42:04;;;;;;;6.22;1.42;;;6.20;99.90;;;;;;5071712;28;20372;-35
2023/01/09 04:44:30;;;;;;;9.63;1.40;;;6.20;99.90;;;;;;5068840;28;20024;-38
2023/01/09 04:46:57;;;;;;;10.32;1.67;;;6.20;99.90;;;;;;5072389;28;20103;-37
2023/01/09 04:49:23;;;;;;;1.85;1.40;;;6.30;99.90;;;;;;5071785;28;20529;-37
2023/01/09 04:51:49;;;;;;;2.35;1.40;;;6.20;99.90;;;;;;5072468;28;20025;-36
2023/01/09 04:54:15;;;;;;;9.85;2.00;;;6.20;99.90;;;;;;5072448;28;20020;-38
2023/01/09 04:56:41;;;;;;;2.78;1.20;;;6.30;99.90;;;;;;5057324;28;20133;-39
2023/01/09 04:59:07;;;;;;;2.03;1.27;;;6.40;99.90;;;;;;5069965;28;20427;-38
2023/01/09 05:01:34;;;;;;;1.38;1.27;;;6.40;99.90;;;;;;5071105;28;20028;-38
2023/01/09 05:04:00;;;;;;;5.00;1.20;;;6.40;99.90;;;;;;5071350;28;20507;-39
2023/01/09 05:06:26;;;;;;;2.33;1.38;;;6.40;99.90;;;;;;5072188;28;20507;-36
2023/01/09 05:08:52;;;;;;;4.82;1.00;;;6.40;99.90;;;;;;5070996;28;20021;-37
2023/01/09 05:11:17;;;;;;;1.67;1.30;;;6.50;99.90;;;;;;5068826;28;20043;-39
2023/01/09 05:13:43;;;;;;;1.23;1.10;;;6.50;99.90;;;;;;5070418;28;20054;-36
2023/01/09 05:16:09;;;;;;;3.88;0.93;;;6.60;99.90;;;;;;5074550;28;20380;-39
2023/01/09 05:18:35;;;;;;;2.83;0.95;;;6.70;99.90;;;;;;5074933;28;20020;-40
2023/01/09 05:21:01;;;;;;;3.42;1.10;;;6.70;99.90;;;;;;5075995;28;20035;-37
2023/01/09 05:23:26;;;;;;;6.53;1.33;;;6.70;99.90;;;;;;5073905;28;20384;-39
2023/01/09 05:25:52;;;;;;;8.07;1.05;;;6.80;99.90;;;;;;5071437;28;20029;-33
2023/01/09 05:28:17;;;;;;;2.85;1.13;;;6.80;99.90;;;;;;5073721;28;20028;-36
2023/01/09 05:30:43;;;;;;;4.28;1.15;;;6.90;99.90;;;;;;5073517;28;20036;-34
2023/01/09 05:33:09;;;;;;;3.25;0.77;;;6.90;99.90;;;;;;5075135;28;20039;-42
2023/01/09 05:35:34;;;;;;;12.10;1.45;;;6.90;99.90;;;;;;5075107;28;20024;-41
2023/01/09 05:38:00;;;;;;;6.28;1.05;;;6.90;99.90;;;;;;5074347;28;20094;-43
2023/01/09 05:40:26;;;;;;;6.35;1.30;;;7.00;99.90;;;;;;5072706;28;20468;-42
2023/01/09 05:42:51;;;;;;;5.53;1.27;;;7.00;99.90;;;;;;5073726;28;20048;-39
2023/01/09 05:45:17;;;;;;;6.28;1.10;;;7.00;99.90;;;;;;5072915;28;20035;-41
2023/01/09 05:47:44;;;;;;;9.15;1.27;;;7.00;99.90;;;;;;5073292;28;20504;-42
2023/01/09 05:50:11;;;;;;;1.53;0.80;;;7.00;99.90;;;;;;5074848;28;20078;-44
2023/01/09 05:52:36;;;;;;;2.65;1.30;;;7.00;99.90;;;;;;5074142;28;21039;-41
2023/01/09 05:55:03;;;;;;;8.52;0.95;;;7.10;99.90;;;;;;5072256;28;20591;-46
2023/01/09 05:57:28;;;;;;;6.93;1.42;;;7.10;99.90;;;;;;5072139;28;20508;-43
2023/01/09 05:59:54;;;;;;;3.45;1.20;;;7.10;99.90;;;;;;5072789;28;20242;-44
2023/01/09 06:02:20;;;;;;;2.42;1.10;;;7.20;99.90;;;;;;5074081;28;20433;-41
2023/01/09 06:04:45;;;;;;;5.28;1.42;;;7.20;99.90;;;;;;5075000;28;20032;-40
2023/01/09 06:07:11;;;;;;;7.70;1.52;;;7.30;99.90;;;;;;5074927;28;20023;-39
2023/01/09 06:09:36;;;;;;;9.50;1.20;;;7.20;99.90;;;;;;5073845;28;20495;-39
2023/01/09 06:12:02;;;;;;;7.38;1.08;;;7.20;99.90;;;;;;5074065;28;20029;-42
2023/01/09 06:14:28;;;;;;;7.38;1.17;;;7.20;99.90;;;;;;5074008;28;20023;-40
2023/01/09 06:16:54;;;;;;;3.80;0.93;;;7.20;99.90;;;;;;5074187;28;20503;-43
2023/01/09 06:19:20;;;;;;;7.25;1.45;;;7.10;99.90;;;;;;5074792;28;20021;-34
2023/01/09 06:21:45;;;;;;;4.70;1.02;;;7.20;99.90;;;;;;5073497;28;20146;-39
2023/01/09 06:24:11;;;;;;;6.32;1.08;;;7.30;99.90;;;;;;5074636;28;20036;-34
2023/01/09 06:26:36;;;;;;;3.08;1.27;;;7.20;99.90;;;;;;5073490;28;20029;-42
2023/01/09 06:29:02;;;;;;;1.65;0.77;;;7.20;99.90;;;;;;5072651;28;20044;-40
2023/01/09 06:31:28;;;;;;;4.88;0.85;;;7.20;99.90;;;;;;5074392;28;20065;-43
2023/01/09 06:33:53;;;;;;;7.68;1.60;;;7.10;99.90;;;;;;5074523;28;20074;-42
2023/01/09 06:36:19;;;;;;;3.55;1.52;;;7.10;99.90;;;;;;5070174;28;20032;-42
2023/01/09 06:38:45;;;;;;;1.90;1.00;;;7.10;99.90;;;;;;5072148;28;20537;-34
2023/01/09 06:41:10;;;;;;;3.85;0.93;;;7.20;99.90;;;;;;5069471;28;20020;-35
2023/01/09 06:43:36;;;;;;;2.78;0.90;;;7.20;99.90;;;;;;5071952;28;20033;-39
2023/01/09 06:46:04;;;;;;;4.50;1.08;;;7.20;99.90;;;;;;5072384;28;20480;-32
2023/01/09 06:48:30;;;;;;;5.93;1.52;;;7.20;99.90;;;;;;5072586;28;20396;-38
2023/01/09 06:50:56;;;;;;;11.55;1.42;;;7.30;99.90;;;;;;5071992;28;20028;-39
2023/01/09 06:53:21;;;;;;;10.32;1.23;;;7.30;99.90;;;;;;5073199;28;20598;-35
2023/01/09 06:55:47;;;;;;;8.75;2.17;;;7.30;99.90;;;;;;5074155;28;20031;-38
2023/01/09 06:58:13;;;;;;;5.60;1.55;;;7.30;99.90;;;;;;5073931;28;20070;-33
2023/01/09 07:00:38;;;;;;;5.57;1.42;;;7.30;99.90;;;;;;5073062;28;20028;-36
2023/01/09 07:03:05;;;;;;;10.00;1.95;;;7.30;99.90;;;;;;5072787;28;20033;-41
2023/01/09 07:05:32;;;;;;;2.05;1.55;;;7.30;99.90;;;;;;5073891;28;20020;-38
2023/01/09 07:07:58;;;;;;;4.63;1.38;;;7.20;99.90;;;;;;5071621;28;20357;-39
2023/01/09 07:10:23;;;;;;;6.78;1.98;;;7.30;99.90;;;;;;5072736;28;20036;-38
2023/01/09 07:12:49;;;;;;;6.95;2.03;;;7.30;99.90;;;;;;5073668;28;20469;-40
2023/01/09 07:15:15;;;;;;;9.10;1.80;;;7.30;99.90;;;;;;5073272;28;20058;-43
2023/01/09 07:17:40;;;;;;;10.50;2.45;;;7.20;99.90;;;;;;5073679;28;20028;-42
2023/01/09 07:20:07;;;;;;;8.43;2.42;;;7.20;99.90;;;;;;5073527;28;20028;-40
2023/01/09 07:22:32;;;;;;;7.07;1.80;;;7.20;99.90;;;;;;5073828;28;20574;-41
2023/01/09 07:24:58;;;;;;;5.70;2.03;;;7.20;99.90;;;;;;5072758;28;20032;-41
2023/01/09 07:27:24;;;;;;;9.52;2.28;;;7.30;99.90;;;;;;5072627;28;20029;-41
2023/01/09 07:29:50;;;;;;;2.88;1.63;;;7.30;99.90;;;;;;5073518;28;20388;-42
2023/01/09 07:32:16;;;;;;;8.45;2.58;;;7.30;99.90;;;;;;5068842;28;20036;-38
2023/01/09 07:34:41;;;;;;;3.33;2.00;;;7.30;99.90;;;;;;5059611;28;20051;-34
2023/01/09 07:37:07;;;;;;;5.70;2.20;;;7.40;99.90;;;;;;5068941;28;20197;-42
2023/01/09 07:39:33;;;;;;;5.93;2.22;;;7.40;99.90;;;;;;5073567;28;20013;-40
2023/01/09 07:41:59;;;;;;;4.70;2.17;;;7.40;99.90;;;;;;5073306;28;20031;-40
2023/01/09 07:44:24;;;;;;;8.52;2.13;;;7.50;99.90;;;;;;5067591;28;20534;-40
2023/01/09 07:46:50;;;;;;;7.63;2.08;;;7.50;99.90;;;;;;5071485;28;20486;-43
2023/01/09 07:49:16;;;;;;;5.45;1.83;;;7.60;99.90;;;;;;5071398;28;20021;-41
2023/01/09 07:51:47;;;;;;;4.00;1.65;;;7.60;99.90;;;;;;5053177;28;20416;-45
2023/01/09 07:54:12;;;;;;;7.00;1.70;;;7.60;99.90;;;;;;5052987;28;20029;-45
2023/01/09 07:56:39;;;;;;;3.55;1.20;;;7.60;99.90;;;;;;5065498;28;20085;-43
2023/01/09 07:59:05;;;;;;;2.15;1.40;;;7.60;99.90;;;;;;5072271;28;20107;-40
2023/01/09 08:01:31;;;;;;;1.13;0.95;;;7.70;99.90;;;;;;5072260;28;20464;-44
2023/01/09 08:03:56;;;;;;;1.67;0.68;;;7.70;99.90;;;;;;5071131;28;20032;-42
2023/01/09 08:06:22;;;;;;;3.38;0.70;;;7.70;99.90;;;;;;5072187;28;20020;-34
2023/01/09 08:08:48;;;;;;;3.78;0.70;;;7.60;99.90;;;;;;5069158;28;20453;-39
2023/01/09 08:11:14;;;;;;;5.68;0.73;;;7.60;99.90;;;;;;5061718;28;20484;-38
2023/01/09 08:13:40;;;;;;;1.38;0.40;;;7.70;99.90;;;;;;5066550;28;20017;-39
2023/01/09 08:16:06;;;;;;;1.77;0.28;;;7.60;99.90;;;;;;5073513;28;20107;-43
2023/01/09 08:18:32;;;;;;;1.85;0.55;;;7.70;99.90;;;;;;5072056;28;20063;-39
2023/01/09 08:20:57;;;;;;;14.90;1.27;;;7.70;99.90;;;;;;5072774;28;20036;-35
2023/01/09 08:23:23;;;;;;;5.45;0.77;;;7.60;99.90;;;;;;5072744;28;20496;-42
2023/01/09 08:25:48;;;;;;;6.25;0.55;;;7.70;99.90;;;;;;5072692;28;20025;-42
2023/01/09 08:28:14;;;;;;;0.50;0.40;;;7.70;99.90;;;;;;5070917;28;20055;-34
2023/01/09 08:30:40;;;;;;;10.57;1.33;;;7.70;99.90;;;;;;5068671;28;20025;-38
2023/01/09 08:33:05;;;;;;;4.38;0.38;;;7.70;99.90;;;;;;5063715;28;20028;-39
2023/01/09 08:35:31;;;;;;;0.45;0.40;;;7.80;99.90;;;;;;5062622;28;20031;-42
2023/01/09 08:37:57;;;;;;;2.28;0.63;;;7.80;99.90;;;;;;5064718;28;20025;-38
2023/01/09 08:40:22;;;;;;;2.00;0.63;;;7.80;99.90;;;;;;5066372;28;20108;-36
2023/01/09 08:48:17;;;;;;;5.32;1.40;;;7.90;99.90;;;;;;5071385;28;20070;-38
2023/01/09 08:50:43;;;;;;;2.75;0.70;;;8.00;99.90;;;;;;5068805;28;20111;-39
2023/01/09 08:53:09;;;;;;;4.18;0.63;;;8.00;99.90;;;;;;5074137;28;20021;-37
2023/01/09 08:55:35;;;;;;;0.88;0.38;;;8.00;99.90;;;;;;5074528;28;20419;-37
2023/01/09 08:58:04;;;;;;;1.40;0.60;;;7.90;99.90;;;;;;5073878;28;20020;-37
2023/01/09 09:00:29;;;;;;;6.07;0.82;;;8.00;99.90;;;;;;5073268;28;20487;-39
2023/01/09 09:02:57;;;;;;;2.35;0.28;;;8.00;99.90;;;;;;5071512;28;20620;-39
2023/01/09 09:05:24;;;;;;;5.03;0.70;;;8.00;99.90;;;;;;5073170;28;20491;-38
2023/01/09 09:07:52;;;;;;;4.95;0.57;;;8.00;99.90;;;;;;5072961;28;20112;-40
2023/01/09 09:10:18;;;;;;;4.38;0.73;;;8.00;99.90;;;;;;5074093;28;20377;-35
2023/01/09 09:12:46;;;;;;;1.23;0.40;;;8.00;99.90;;;;;;5067359;28;20082;-37
2023/01/09 09:15:12;;;;;;;;;;;8.00;99.90;;;;;;5073242;28;20017;-38
2023/01/09 09:17:39;;;;;;;3.58;1.05;;;8.00;99.90;;;;;;5074697;28;20394;-38
2023/01/09 09:20:06;;;;;;;6.17;1.50;;;7.90;99.90;;;;;;5075653;28;20063;-39
2023/01/09 09:22:32;;;;;;;5.60;0.88;;;8.00;99.90;;;;;;5074763;28;20029;-39
2023/01/09 09:24:57;;;;;;;6.38;0.50;;;8.00;99.90;;;;;;5073021;28;20482;-38
2023/01/09 09:27:23;;;;;;;7.53;1.02;;;8.10;99.90;;;;;;5073701;28;20115;-42
2023/01/09 09:30:07;;;;;;;4.78;1.25;;;8.00;99.90;;;;;;5073965;28;20035;-46
2023/01/09 09:32:33;;;;;;;2.25;0.88;;;8.00;99.90;;;;;;5074535;28;20049;-43
2023/01/09 09:34:59;;;;;;;5.00;0.60;;;8.10;99.90;;;;;;5074200;28;20437;-46
2023/01/09 09:37:24;;;;;;;9.07;1.40;;;8.10;99.90;;;;;;5075771;28;20115;-43
2023/01/09 09:39:50;;;;;;;10.20;1.50;;;8.20;99.90;;;;;;5075648;28;20060;-40
2023/01/09 09:45:20;;;;;;;10.30;1.10;;;8.30;99.90;;;;;;5070452;28;20507;-43
2023/01/09 09:48:23;;;;;;;15.50;2.42;;;8.40;99.90;;;;;;5065947;28;20417;-32
2023/01/09 09:50:49;;;;;;;10.02;1.38;;;8.50;99.90;;;;;;5072987;28;20032;-33
2023/01/09 09:53:29;;;;;;;5.80;1.30;;;8.60;99.90;;;;;;5074492;28;20029;-35
2023/01/09 09:55:56;;;;;;;6.50;0.70;;;8.60;99.90;;;;;;5074539;28;20036;-37
2023/01/09 09:58:33;;;;;;;4.75;1.20;;;8.80;99.90;;;;;;5075090;28;20043;-37
2023/01/09 10:00:59;;;;;;;9.88;1.60;;;8.80;99.90;;;;;;5074603;28;20040;-48
2023/01/09 10:03:30;;;;;;;7.65;1.60;;;8.90;99.90;;;;;;5075285;28;20207;-44
2023/01/09 10:05:59;;;;;;;11.55;1.27;;;8.90;99.90;;;;;;5075035;28;20051;-42
2023/01/09 10:08:36;;;;;;;6.78;1.33;;;9.00;99.90;;;;;;5075175;28;20029;-42
2023/01/09 10:11:02;;;;;;;4.25;1.35;;;8.90;99.90;;;;;;5073961;28;20404;-41
2023/01/09 10:16:35;;;;;;;8.82;0.77;;;8.80;99.90;;;;;;5075245;28;20571;-41
2023/01/09 10:19:19;;;;;;;;;;;8.70;99.90;;;;;;5075607;28;20028;-44
2023/01/09 10:21:53;;;;;;;3.00;0.45;;;8.60;99.90;;;;;;5075187;28;20356;-46
2023/01/09 10:24:37;;;;;;;3.78;0.88;;;8.50;99.90;;;;;;5074867;28;20495;-41
2023/01/09 10:27:42;;;;;;;1.33;0.45;;;8.50;99.90;;;;;;5075054;28;20032;-43
2023/01/09 10:30:10;;;;;;;10.60;1.33;;;8.50;99.90;;;;;;5040803;28;20041;-40
2023/01/09 10:33:02;;;;;;;4.43;1.15;;;8.50;99.90;;;;;;5074498;28;20102;-42
2023/01/09 10:35:36;;;;;;;2.55;0.73;;;8.50;99.90;;;;;;5074940;28;20498;-42
2023/01/09 10:38:05;;;;;;;6.55;0.50;;;8.60;99.90;;;;;;5074602;28;20503;-41
2023/01/09 10:40:40;;;;;;;4.47;0.90;;;8.50;99.90;;;;;;5074526;28;20029;-47
2023/01/09 10:43:12;;;;;;;2.30;1.35;;;8.50;99.90;;;;;;5074511;28;20028;-41
2023/01/09 10:45:51;;;;;;;5.88;0.68;;;8.50;99.90;;;;;;5074641;28;20025;-40
2023/01/09 10:48:39;;;;;;;1.10;0.68;;;8.50;99.90;;;;;;5074724;28;20100;-41
2023/01/09 10:51:18;;;;;;;6.78;1.00;;;8.60;99.90;;;;;;5074102;28;20492;-41
2023/01/09 10:53:48;;;;;;;13.30;1.67;;;8.80;99.90;;;;;;5074362;28;20040;-38
2023/01/09 10:56:21;;;;;;;4.95;0.90;;;8.90;99.90;;;;;;5074207;28;20052;-40
2023/01/09 10:58:47;;;;;;;15.45;1.23;;;9.10;99.90;;;;;;5074204;28;20039;-40
2023/01/09 11:01:13;;;;;;;8.82;1.35;;;9.10;99.90;;;;;;5074412;28;20115;-40
2023/01/09 11:03:39;;;;;;;5.28;0.88;;;9.20;99.90;;;;;;5074131;28;20096;-41
2023/01/09 11:06:20;;;;;;;6.32;1.15;;;9.30;99.90;;;;;;5074211;28;20121;-40
2023/01/09 11:08:49;;;;;;;5.75;0.70;;;9.40;99.90;;;;;;5073866;28;20020;-38
2023/01/09 11:11:32;;;;;;;2.35;1.10;;;9.50;99.90;;;;;;5073092;28;20480;-41
2023/01/09 11:14:17;;;;;;;4.03;0.98;;;9.50;99.90;;;;;;5074101;28;20092;-39
2023/01/09 11:16:57;;;;;;;4.38;0.95;;;9.50;99.90;;;;;;5073820;28;20507;-42
2023/01/09 11:19:24;;;;;;;10.93;1.30;;;9.50;99.90;;;;;;5074010;28;20433;-43
2023/01/09 11:22:04;;;;;;;5.90;1.67;;;9.40;99.90;;;;;;5073696;28;20392;-42
2023/01/09 11:24:30;;;;;;;15.23;1.67;;;9.30;99.90;;;;;;5073777;28;20270;-43
2023/01/09 11:27:22;;;;;;;7.75;1.40;;;9.20;99.90;;;;;;5073453;28;20119;-42
2023/01/09 11:30:05;;;;;;;7.20;1.88;;;9.20;99.90;;;;;;5073477;28;20503;-37
2023/01/09 11:32:32;;;;;;;4.85;1.55;;;9.20;99.90;;;;;;5073394;28;20550;-36
2023/01/09 11:34:58;;;;;;;5.25;1.00;;;9.30;99.90;;;;;;5073334;28;20017;-36
2023/01/09 11:37:27;;;;;;;17.52;3.03;;;9.30;99.90;;;;;;5073218;28;20442;-38
2023/01/09 11:39:54;;;;;;;6.18;1.65;;;9.20;99.90;;;;;;5073295;28;20028;-38
2023/01/09 11:45:40;;;;;;;7.80;0.95;;;9.20;99.90;;;;;;5073436;28;20097;-35
2023/01/09 11:48:16;;;;;;;7.68;1.15;;;9.20;99.90;;;;;;5072571;28;20102;-37
2023/01/09 11:50:53;;;;;;;11.18;1.65;;;9.00;99.90;;;;;;5073150;28;20111;-38
2023/01/09 11:53:20;;;;;;;8.63;1.40;;;8.80;99.90;;;;;;5071994;28;20558;-38
2023/01/09 11:55:49;;;;;;;6.50;1.98;;;8.80;99.90;;;;;;5073377;28;20028;-42
2023/01/09 11:58:20;;;;;;;8.73;2.10;;;8.70;99.90;;;;;;5073023;28;20085;-43
2023/01/09 12:01:01;;;;;;;8.75;2.05;;;8.70;99.90;;;;;;5073349;28;20025;-44
2023/01/09 12:04:02;;;;;;;14.90;2.13;;;8.80;99.90;;;;;;5071910;28;20029;-41
2023/01/09 12:06:56;;;;;;;8.90;1.50;;;8.90;99.90;;;;;;5058930;28;20550;-41
2023/01/09 12:09:42;;;;;;;7.35;1.35;;;9.00;99.90;;;;;;5073321;28;20500;-41
2023/01/09 12:12:28;;;;;;;6.07;1.25;;;9.10;99.90;;;;;;5052940;28;20024;-41
2023/01/09 12:15:03;;;;;;;10.10;1.92;;;9.10;99.90;;;;;;5053196;28;20488;-42
2023/01/09 12:17:44;;;;;;;9.13;1.60;;;9.10;99.90;;;;;;5052895;28;20033;-41
2023/01/09 12:20:34;;;;;;;9.15;1.52;;;9.20;99.90;;;;;;5052881;28;20040;-41
2023/01/09 12:23:38;;;;;;;8.45;2.90;;;9.20;99.90;;;;;;5052386;28;20362;-42
2023/01/09 12:26:19;;;;;;;10.38;2.17;;;9.30;99.90;;;;;;5043463;28;20056;-41
2023/01/09 12:29:09;;;;;;;16.05;1.67;;;9.20;99.90;;;;;;5053000;28;20493;-41
2023/01/09 12:31:37;;;;;;;10.25;1.80;;;9.30;99.90;;;;;;5052486;28;20081;-41
2023/01/09 12:34:26;;;;;;;6.78;1.67;;;9.30;99.90;;;;;;5052683;28;20252;-40
2023/01/09 12:37:19;;;;;;;6.43;1.70;;;9.40;99.90;;;;;;5052704;28;20381;-39
2023/01/09 12:39:56;;;;;;;10.52;1.23;;;9.40;99.90;;;;;;5052636;28;20480;-42
2023/01/09 12:42:48;;;;;;;5.10;1.10;;;9.40;99.90;;;;;;5052643;28;20108;-42
2023/01/09 12:45:35;;;;;;;6.78;1.35;;;9.30;99.90;;;;;;5045520;28;20554;-41
2023/01/09 12:48:09;;;;;;;13.38;1.23;;;9.30;99.90;;;;;;5052511;28;20504;-43
2023/01/09 12:50:55;;;;;;;11.43;1.67;;;9.20;99.90;;;;;;5051185;28;20485;-42
2023/01/09 12:56:28;;;;;;;5.93;1.42;;;9.20;99.90;;;;;;5052747;28;20078;-37
2023/01/09 12:59:08;;;;;;;13.30;1.48;;;9.00;99.90;;;;;;5052410;28;20103;-40
2023/01/09 13:01:48;;;;;;;11.50;1.88;;;9.00;99.90;;;;;;5052364;28;20018;-43
2023/01/09 13:04:18;;;;;;;14.45;1.67;;;9.00;99.90;;;;;;5052346;28;20029;-40
2023/01/09 13:06:49;;;;;;;10.82;3.30;;;9.00;99.90;;;;;;5052238;28;20060;-41
2023/01/09 13:09:25;;;;;;;8.82;1.27;;;9.10;99.90;;;;;;5052294;28;20026;-42
2023/01/09 13:12:06;;;;;;;11.52;1.33;;;9.20;99.90;;;;;;5069940;28;20017;-41
2023/01/09 13:15:05;;;;;;;9.90;1.50;;;9.30;99.90;;;;;;5072325;28;20025;-40
2023/01/09 13:17:52;;;;;;;8.55;1.25;;;9.40;99.90;;;;;;5069622;28;20033;-42
2023/01/09 13:20:41;;;;;;;14.32;2.30;;;9.40;99.90;;;;;;5072232;28;20060;-44
2023/01/09 13:23:13;;;;;;;9.27;1.20;;;9.30;99.90;;;;;;5072276;28;20033;-43
2023/01/09 13:25:46;;;;;;;10.02;2.33;;;9.30;99.90;;;;;;5072136;28;20032;-42
2023/01/09 13:28:26;;;;;;;4.45;1.55;;;9.30;99.90;;;;;;5072098;28;20024;-42
2023/01/09 13:31:18;;;;;;;4.18;1.80;;;9.30;99.90;;;;;;5072220;28;20480;-40
2023/01/09 13:33:50;;;;;;;13.63;2.47;;;9.30;99.90;;;;;;5072041;28;20029;-43